« Back
NWS Peachtree City, Ga » Text Product » AHN Terminal Aerodrome Forecast


Printer-friendly Version
Current Version              Previous Versions:   1  2  3  4  5  6  7  8  9  

Terminal Aerodrome Forecast

276
FTUS42 KFFC 060520
TAFAHN
TAF
KAHN 060520Z 0606/0706 00000KT P6SM SKC
     FM061700 09004KT P6SM FEW050
     FM062300 00000KT P6SM FEW050
     FM070000 00000KT P6SM FEW250=

USA.gov is the U.S. government's official web portal to all federal, state and local government web resources and services.